Time;durP1;ratioP1;P1;durP2;ratioP2;P2;SDS_P1;SDS_P2;PMS_P1;PMS_P2;Temp;Humidity;BMP_temperature;BMP_pressure;BME280_temperature;BME280_humidity;BME280_pressure;Samples;Min_cycle;Max_cycle;Signal;HPM_P1;HPM_P2
2022/12/08 00:02:03;;;;;;;;;;;;;;;-5.30;100.00;100901.91;5065224;28;20023;-61
2022/12/08 00:04:28;;;;;;;;;;;;;;;-5.38;100.00;100896.31;5063804;28;20019;-60
2022/12/08 00:09:39;;;;;;;;;;;;;;;-5.52;100.00;100897.84;5064386;28;19982;-61
2022/12/08 00:12:04;;;;;;;;;;;;;;;-5.55;100.00;100895.44;5065361;28;19920;-60
2022/12/08 00:14:31;;;;;;;;;;;;;;;-5.56;100.00;100890.31;5060323;28;20439;-57
2022/12/08 00:16:57;;;;;;;;;;;;;;;-5.60;100.00;100881.03;5065823;28;19978;-61
2022/12/08 00:19:22;;;;;;;;;;;;;;;-5.64;100.00;100879.53;5063872;28;20430;-59
2022/12/08 00:21:47;;;;;;;;;;;;;;;-5.66;100.00;100876.19;5061786;28;19936;-60
2022/12/08 00:24:13;;;;;;;;;;;;;;;-5.66;100.00;100873.63;5061166;28;19929;-60
2022/12/08 00:26:38;;;;;;;;;;;;;;;-5.65;100.00;100876.13;5073714;28;19928;-60
2022/12/08 00:29:03;;;;;;;;;;;;;;;-5.72;100.00;100874.75;5064918;28;20317;-60
2022/12/08 00:31:29;;;;;;;;;;;;;;;-5.74;100.00;100874.00;5060925;28;20244;-61
2022/12/08 00:33:54;;;;;;;;;;;;;;;-5.75;100.00;100875.75;5062659;28;20361;-61
2022/12/08 00:36:19;;;;;;;;;;;;;;;-5.76;100.00;100862.91;5057641;28;20278;-60
2022/12/08 00:38:46;;;;;;;;;;;;;;;-5.78;100.00;100859.56;5064619;28;19939;-58
2022/12/08 00:41:13;;;;;;;;;;;;;;;-5.87;100.00;100852.28;5067405;28;20066;-59
2022/12/08 00:43:38;;;;;;;;;;;;;;;-5.90;100.00;100855.84;5068236;28;19938;-60
2022/12/08 00:46:04;;;;;;;;;;;;;;;-5.85;100.00;100853.88;5065093;28;20022;-58
2022/12/08 00:48:29;;;;;;;;;;;;;;;-5.84;100.00;100849.53;5066206;28;19924;-60
2022/12/08 00:50:54;;;;;;;;;;;;;;;-5.82;100.00;100838.22;5064896;28;19920;-60
2022/12/08 00:53:20;;;;;;;;;;;;;;;-5.82;100.00;100830.47;5065582;28;20273;-60
2022/12/08 00:55:45;;;;;;;;;;;;;;;-5.77;100.00;100838.00;5065919;28;20000;-60
2022/12/08 00:58:10;;;;;;;;;;;;;;;-5.77;100.00;100836.25;5066177;28;19939;-60
2022/12/08 01:00:35;;;;;;;;;;;;;;;-5.77;100.00;100831.06;5067718;28;19921;-59
2022/12/08 01:03:00;;;;;;;;;;;;;;;-5.85;100.00;100824.66;5066013;28;19920;-60
2022/12/08 01:05:26;;;;;;;;;;;;;;;-5.95;100.00;100819.13;5066451;28;19925;-60
2022/12/08 01:07:51;;;;;;;;;;;;;;;-5.99;100.00;100821.03;5077499;28;19984;-60
2022/12/08 01:10:16;;;;;;;;;;;;;;;-6.02;100.00;100818.59;5068895;28;19920;-58
2022/12/08 01:12:41;;;;;;;;;;;;;;;-6.02;100.00;100810.00;5066171;28;19927;-60
2022/12/08 01:15:07;;;;;;;;;;;;;;;-6.06;100.00;100811.09;5068627;28;19920;-60
2022/12/08 01:17:32;;;;;;;;;;;;;;;-6.11;100.00;100806.16;5066039;28;19920;-59
2022/12/08 01:19:58;;;;;;;;;;;;;;;-6.11;100.00;100806.16;5063517;28;20261;-60
2022/12/08 01:22:23;;;;;;;;;;;;;;;-6.14;100.00;100806.31;5065344;28;20012;-60
2022/12/08 01:24:48;;;;;;;;;;;;;;;-6.16;100.00;100803.78;5064912;28;19920;-60
2022/12/08 01:27:14;;;;;;;;;;;;;;;-6.16;100.00;100797.81;5066797;28;19920;-59
2022/12/08 01:29:39;;;;;;;;;;;;;;;-6.16;100.00;100795.22;5064790;28;19928;-60
2022/12/08 01:32:05;;;;;;;;;;;;;;;-6.18;100.00;100791.88;5067266;28;19920;-60
2022/12/08 01:34:30;;;;;;;;;;;;;;;-6.18;100.00;100791.88;5063886;28;19929;-58
2022/12/08 01:36:55;;;;;;;;;;;;;;;-6.22;100.00;100787.75;5065302;28;20351;-59
2022/12/08 01:39:20;;;;;;;;;;;;;;;-6.24;100.00;100785.28;5062699;28;19927;-60
2022/12/08 01:41:46;;;;;;;;;;;;;;;-6.21;100.00;100784.28;5066267;28;19932;-59
2022/12/08 01:44:11;;;;;;;;;;;;;;;-6.20;100.00;100775.63;5063466;28;19927;-60
2022/12/08 01:46:38;;;;;;;;;;;;;;;-6.23;100.00;100775.78;5063945;28;19924;-60
2022/12/08 01:49:15;;;;;;;;;;;;;;;-6.26;100.00;100773.34;5065854;28;19920;-60
2022/12/08 01:51:43;;;;;;;;;;;;;;;-6.27;100.00;100775.13;5063361;28;20437;-59
2022/12/08 01:54:08;;;;;;;;;;;;;;;-6.29;100.00;100771.75;5067727;28;19920;-59
2022/12/08 01:56:41;;;;;;;;;;;;;;;-6.31;100.00;100776.16;5063844;28;19929;-59
2022/12/08 01:59:06;;;;;;;;;;;;;;;-6.29;100.00;100763.19;5067901;28;19920;-59
2022/12/08 02:01:31;;;;;;;;;;;;;;;-6.29;100.00;100773.50;5064628;28;19996;-57
2022/12/08 02:03:59;;;;;;;;;;;;;;;-6.29;100.00;100770.94;5062899;28;19924;-58
2022/12/08 02:06:26;;;;;;;;;;;;;;;-6.30;100.00;100766.66;5061647;28;19920;-58
2022/12/08 02:08:54;;;;;;;;;;;;;;;-6.36;100.00;100762.66;5061094;28;19929;-58
2022/12/08 02:11:19;;;;;;;;;;;;;;;-6.42;100.00;100765.53;5061825;28;20116;-57
2022/12/08 02:13:45;;;;;;;;;;;;;;;-6.42;100.00;100765.53;5062451;28;19983;-59
2022/12/08 02:16:20;;;;;;;;;;;;;;;-6.44;100.00;100759.63;5058244;28;19940;-59
2022/12/08 02:18:48;;;;;;;;;;;;;;;-6.46;100.00;100757.09;5065511;28;20800;-57
2022/12/08 02:21:16;;;;;;;;;;;;;;;-6.45;100.00;100760.53;5063462;28;20058;-60
2022/12/08 02:24:08;;;;;;;;;;;;;;;-6.45;100.00;100757.97;5065899;28;19971;-59
2022/12/08 02:26:36;;;;;;;;;;;;;;;-6.44;100.00;100763.03;5053800;28;19924;-59
2022/12/08 02:29:20;;;;;;;;;;;;;;;-6.45;100.00;100755.38;5060876;28;19932;-59
2022/12/08 02:32:08;;;;;;;;;;;;;;;-6.46;100.00;100753.69;5063376;28;19927;-58
2022/12/08 02:34:36;;;;;;;;;;;;;;;-6.44;100.00;100744.97;5057284;28;19924;-59
2022/12/08 02:37:37;;;;;;;;;;;;;;;-6.43;100.00;100744.06;5064236;28;20012;-59
2022/12/08 02:40:02;;;;;;;;;;;;;;;-6.42;100.00;100745.72;5043626;28;20448;-58
2022/12/08 02:42:30;;;;;;;;;;;;;;;-6.44;100.00;100737.22;5062568;28;21171;-59
2022/12/08 02:45:02;;;;;;;;;;;;;;;-6.39;100.00;100742.16;5064751;28;19928;-59
2022/12/08 02:47:29;;;;;;;;;;;;;;;-6.36;100.00;100736.84;5070028;28;20390;-57
2022/12/08 02:49:55;;;;;;;;;;;;;;;-6.32;100.00;100734.94;5066273;28;19926;-55
2022/12/08 02:52:20;;;;;;;;;;;;;;;-6.32;100.00;100734.94;5069139;28;20006;-59
2022/12/08 02:54:48;;;;;;;;;;;;;;;-6.41;100.00;100726.75;5070695;28;20366;-59
2022/12/08 02:57:14;;;;;;;;;;;;;;;-6.44;100.00;100723.50;5061195;28;19960;-59
2022/12/08 02:59:39;;;;;;;;;;;;;;;-6.41;100.00;100716.44;5063936;28;20040;-59
2022/12/08 03:02:12;;;;;;;;;;;;;;;-6.43;100.00;100709.66;5067451;28;20058;-55
2022/12/08 03:04:37;;;;;;;;;;;;;;;-6.50;100.00;100706.56;5066960;28;19926;-58
2022/12/08 03:07:10;;;;;;;;;;;;;;;-6.47;100.00;100700.44;5062542;28;20003;-56
2022/12/08 03:09:38;;;;;;;;;;;;;;;-6.44;100.00;100700.28;5064952;28;19936;-57
2022/12/08 03:12:11;;;;;;;;;;;;;;;-6.36;100.00;100695.56;5064162;28;20000;-58
2022/12/08 03:14:37;;;;;;;;;;;;;;;-6.37;100.00;100692.16;5066902;28;19964;-59
2022/12/08 03:17:03;;;;;;;;;;;;;;;-6.43;100.00;100682.16;5061013;28;20344;-58
2022/12/08 03:19:31;;;;;;;;;;;;;;;-6.43;100.00;100684.72;5065843;28;20007;-56
2022/12/08 03:22:01;;;;;;;;;;;;;;;-6.50;100.00;100688.53;5067633;28;20823;-58
2022/12/08 03:24:27;;;;;;;;;;;;;;;-6.54;100.00;100686.16;5066248;28;19974;-60
2022/12/08 03:26:56;;;;;;;;;;;;;;;-6.49;100.00;100681.59;5064730;28;20709;-60
2022/12/08 03:29:21;;;;;;;;;;;;;;;-6.47;100.00;100679.78;5066388;28;19924;-60
2022/12/08 03:31:55;;;;;;;;;;;;;;;-6.50;100.00;100680.78;5069094;28;20120;-59
2022/12/08 03:34:22;;;;;;;;;;;;;;;-6.54;100.00;100692.16;5070668;28;20441;-58
2022/12/08 03:36:47;;;;;;;;;;;;;;;-6.56;100.00;100686.22;5066426;28;19928;-56
2022/12/08 03:39:12;;;;;;;;;;;;;;;-6.62;100.00;100689.13;5072802;28;20270;-58
2022/12/08 03:41:37;;;;;;;;;;;;;;;-6.64;100.00;100686.59;5067534;28;20242;-58
2022/12/08 03:44:03;;;;;;;;;;;;;;;-6.66;100.00;100679.84;5067304;28;19967;-58
2022/12/08 03:46:29;;;;;;;;;;;;;;;-6.67;100.00;100673.88;5071050;28;20499;-58
2022/12/08 03:48:55;;;;;;;;;;;;;;;-6.66;100.00;100669.53;5071147;28;19920;-58
2022/12/08 03:51:20;;;;;;;;;;;;;;;-6.64;100.00;100673.72;5064014;28;19932;-55
2022/12/08 03:53:45;;;;;;;;;;;;;;;-6.67;100.00;100662.72;5067656;28;19920;-55
2022/12/08 03:56:26;;;;;;;;;;;;;;;-6.68;100.00;100669.63;5062503;28;20448;-57
2022/12/08 03:58:51;;;;;;;;;;;;;;;-6.64;100.00;100668.56;5070000;28;19956;-59
2022/12/08 04:01:17;;;;;;;;;;;;;;;-6.56;100.00;100665.59;5069301;28;19963;-59
2022/12/08 04:03:42;;;;;;;;;;;;;;;-6.49;100.00;100660.97;5070259;28;20476;-57
2022/12/08 04:06:07;;;;;;;;;;;;;;;-6.49;100.00;100656.63;5069819;28;19920;-57
2022/12/08 04:08:32;;;;;;;;;;;;;;;-6.48;100.00;100657.47;5069762;28;19924;-59
2022/12/08 04:10:58;;;;;;;;;;;;;;;-6.50;100.00;100649.81;5063284;28;20336;-55
2022/12/08 04:13:23;;;;;;;;;;;;;;;-6.48;100.00;100658.31;5069549;28;19923;-58
2022/12/08 04:15:48;;;;;;;;;;;;;;;-6.45;100.00;100657.34;5064775;28;19927;-59
2022/12/08 04:18:14;;;;;;;;;;;;;;;-6.48;100.00;100653.16;5073830;28;19943;-59
2022/12/08 04:20:40;;;;;;;;;;;;;;;-6.52;100.00;100651.63;5066264;28;19966;-55
2022/12/08 04:23:05;;;;;;;;;;;;;;;-6.46;100.00;100650.50;5068213;28;20353;-58
2022/12/08 04:25:30;;;;;;;;;;;;;;;-6.44;100.00;100653.84;5068963;28;19942;-53
2022/12/08 04:27:55;;;;;;;;;;;;;;;-6.48;100.00;100648.00;5073490;28;20365;-56
2022/12/08 04:30:20;;;;;;;;;;;;;;;-6.51;100.00;100642.97;5068482;28;19929;-56
2022/12/08 04:32:46;;;;;;;;;;;;;;;-6.54;100.00;100647.47;5067097;28;19931;-59
2022/12/08 04:35:11;;;;;;;;;;;;;;;-6.54;100.00;100640.56;5067268;28;19965;-60
2022/12/08 04:37:36;;;;;;;;;;;;;;;-6.52;100.00;100641.31;5065040;28;19929;-55
2022/12/08 04:40:02;;;;;;;;;;;;;;;-6.56;100.00;100632.06;5063616;28;19925;-60
2022/12/08 04:42:27;;;;;;;;;;;;;;;-6.60;100.00;100633.13;5074683;28;19921;-58
2022/12/08 04:44:52;;;;;;;;;;;;;;;-6.56;100.00;100634.63;5066066;28;19920;-58
2022/12/08 04:47:19;;;;;;;;;;;;;;;-6.57;100.00;100629.56;5066254;28;20153;-59
2022/12/08 04:49:44;;;;;;;;;;;;;;;-6.53;100.00;100631.94;5063485;28;19927;-59
2022/12/08 04:52:10;;;;;;;;;;;;;;;-6.57;100.00;100621.84;5067427;28;19924;-59
2022/12/08 04:54:35;;;;;;;;;;;;;;;-6.60;100.00;100617.66;5068901;28;20010;-57
2022/12/08 04:57:00;;;;;;;;;;;;;;;-6.63;100.00;100623.81;5069345;28;20077;-59
2022/12/08 04:59:25;;;;;;;;;;;;;;;-6.60;100.00;100623.66;5066737;28;19921;-59
2022/12/08 05:01:50;;;;;;;;;;;;;;;-6.62;100.00;100624.63;5065120;28;20366;-57
2022/12/08 05:04:16;;;;;;;;;;;;;;;-6.62;100.00;100622.06;5068848;28;20393;-59
2022/12/08 05:06:41;;;;;;;;;;;;;;;-6.64;100.00;100616.97;5064159;28;20370;-57
2022/12/08 05:09:06;;;;;;;;;;;;;;;-6.59;100.00;100620.16;5076200;28;20377;-59
2022/12/08 05:11:31;;;;;;;;;;;;;;;-6.55;100.00;100613.09;5065552;28;19931;-56
2022/12/08 05:13:57;;;;;;;;;;;;;;;-6.52;100.00;100610.38;5072181;28;20308;-59
2022/12/08 05:16:22;;;;;;;;;;;;;;;-6.59;100.00;100606.41;5060670;28;20015;-59
2022/12/08 05:18:47;;;;;;;;;;;;;;;-6.65;100.00;100617.06;5068484;28;20353;-58
2022/12/08 05:21:12;;;;;;;;;;;;;;;-6.70;100.00;100606.97;5063603;28;20359;-59
2022/12/08 05:23:37;;;;;;;;;;;;;;;-6.70;100.00;100611.31;5070888;28;20472;-59
2022/12/08 05:26:03;;;;;;;;;;;;;;;-6.64;100.00;100606.66;5066997;28;20468;-59
2022/12/08 05:28:28;;;;;;;;;;;;;;;-6.69;100.00;100610.38;5069113;28;19929;-58
2022/12/08 05:30:53;;;;;;;;;;;;;;;-6.66;100.00;100613.66;5068319;28;20338;-59
2022/12/08 05:33:18;;;;;;;;;;;;;;;-6.67;100.00;100608.56;5067169;28;20420;-59
2022/12/08 05:35:44;;;;;;;;;;;;;;;-6.68;100.00;100609.50;5065871;28;20302;-56
2022/12/08 05:38:09;;;;;;;;;;;;;;;-6.72;100.00;100602.81;5072880;28;20368;-58
2022/12/08 05:40:36;;;;;;;;;;;;;;;-6.75;100.00;100603.78;5066883;28;20296;-59
2022/12/08 05:43:01;;;;;;;;;;;;;;;-6.77;100.00;100594.47;5063035;28;20031;-58
2022/12/08 05:45:26;;;;;;;;;;;;;;;-6.74;100.00;100589.97;5064237;28;20015;-59
2022/12/08 05:47:52;;;;;;;;;;;;;;;-6.64;100.00;100596.34;5065754;28;19970;-56
2022/12/08 05:50:17;;;;;;;;;;;;;;;-6.63;100.00;100594.63;5063590;28;19967;-59
2022/12/08 05:52:42;;;;;;;;;;;;;;;-6.67;100.00;100585.34;5068696;28;20389;-59
2022/12/08 05:55:08;;;;;;;;;;;;;;;-6.73;100.00;100585.69;5066224;28;19928;-59
2022/12/08 05:57:33;;;;;;;;;;;;;;;-6.75;100.00;100580.59;5070709;28;19920;-59
2022/12/08 05:59:58;;;;;;;;;;;;;;;-6.76;100.00;100578.94;5068223;28;20385;-58
2022/12/08 06:02:24;;;;;;;;;;;;;;;-6.68;100.00;100581.13;5074772;28;19927;-56
2022/12/08 06:04:49;;;;;;;;;;;;;;;-6.64;100.00;100586.00;5065983;28;19956;-59
2022/12/08 06:07:15;;;;;;;;;;;;;;;-6.63;100.00;100586.88;5067831;28;19927;-59
2022/12/08 06:09:41;;;;;;;;;;;;;;;-6.67;100.00;100575.84;5055253;28;20373;-59
2022/12/08 06:12:06;;;;;;;;;;;;;;;-6.75;100.00;100582.34;5068578;28;19920;-58
2022/12/08 06:14:31;;;;;;;;;;;;;;;-6.81;100.00;100580.91;5067592;28;19920;-58
2022/12/08 06:16:56;;;;;;;;;;;;;;;-6.83;100.00;100583.56;5068161;28;19920;-58
2022/12/08 06:19:22;;;;;;;;;;;;;;;-6.78;100.00;100578.16;5070279;28;20012;-59
2022/12/08 06:21:47;;;;;;;;;;;;;;;-6.77;100.00;100579.81;5068533;28;20000;-58
2022/12/08 06:24:13;;;;;;;;;;;;;;;-6.84;100.00;100579.31;5071607;28;19947;-55
2022/12/08 06:26:40;;;;;;;;;;;;;;;-6.84;100.00;100583.63;5068695;28;20008;-57
2022/12/08 06:29:05;;;;;;;;;;;;;;;-6.89;100.00;100583.88;5076280;28;19931;-55
2022/12/08 06:31:30;;;;;;;;;;;;;;;-6.91;100.00;100588.25;5071275;28;19916;-54
2022/12/08 06:33:56;;;;;;;;;;;;;;;-6.95;100.00;100586.72;5072223;28;19987;-59
2022/12/08 06:36:24;;;;;;;;;;;;;;;-7.00;100.00;100580.97;5072529;28;19943;-56
2022/12/08 06:38:49;;;;;;;;;;;;;;;-7.05;100.00;100591.53;5070785;28;20023;-54
2022/12/08 06:41:15;;;;;;;;;;;;;;;-7.06;100.00;100578.72;5071417;28;20003;-55
2022/12/08 06:43:40;;;;;;;;;;;;;;;-7.04;100.00;100580.31;5071780;28;19963;-57
2022/12/08 06:46:07;;;;;;;;;;;;;;;-6.98;100.00;100586.06;5070671;28;19928;-59
2022/12/08 06:48:32;;;;;;;;;;;;;;;-6.94;100.00;100582.41;5068120;28;20015;-59
2022/12/08 06:51:04;;;;;;;;;;;;;;;-6.87;100.00;100584.59;5070714;28;20134;-57
2022/12/08 06:53:29;;;;;;;;;;;;;;;-6.85;100.00;100585.38;5067216;28;19928;-55
2022/12/08 06:55:54;;;;;;;;;;;;;;;-6.95;100.00;100591.06;5069479;28;19920;-56
2022/12/08 06:58:20;;;;;;;;;;;;;;;-6.97;100.00;100583.38;5070027;28;20076;-57
2022/12/08 07:00:45;;;;;;;;;;;;;;;-6.88;100.00;100580.38;5064918;28;20023;-58
2022/12/08 07:03:11;;;;;;;;;;;;;;;-6.85;100.00;100571.66;5070459;28;20328;-59
2022/12/08 07:05:37;;;;;;;;;;;;;;;-6.83;100.00;100569.81;5070192;28;19964;-54
2022/12/08 07:08:02;;;;;;;;;;;;;;;-6.90;100.00;100574.44;5069425;28;19925;-57
2022/12/08 07:10:28;;;;;;;;;;;;;;;-6.96;100.00;100571.38;5065515;28;19924;-55
2022/12/08 07:12:53;;;;;;;;;;;;;;;-7.03;100.00;100576.81;5069394;28;19927;-58
2022/12/08 07:15:18;;;;;;;;;;;;;;;-7.03;100.00;100573.41;5071311;28;19928;-59
2022/12/08 07:17:44;;;;;;;;;;;;;;;-7.01;100.00;100584.47;5063749;28;19924;-59
2022/12/08 07:20:09;;;;;;;;;;;;;;;-7.05;100.00;100588.97;5066108;28;19950;-59
2022/12/08 07:22:35;;;;;;;;;;;;;;;-7.08;100.00;100586.50;5068174;28;19932;-57
2022/12/08 07:25:00;;;;;;;;;;;;;;;-7.09;100.00;100584.84;5064604;28;19931;-57
2022/12/08 07:27:25;;;;;;;;;;;;;;;-7.13;100.00;100580.75;5064091;28;19921;-58
2022/12/08 07:29:50;;;;;;;;;;;;;;;-7.17;100.00;100588.72;5060835;28;19926;-56
2022/12/08 07:32:16;;;;;;;;;;;;;;;-7.10;100.00;100584.91;5068570;28;19928;-57
2022/12/08 07:34:41;;;;;;;;;;;;;;;-7.07;100.00;100579.63;5070396;28;19928;-56
2022/12/08 07:37:06;;;;;;;;;;;;;;;-7.06;100.00;100583.88;5070242;28;19928;-56
2022/12/08 07:39:31;;;;;;;;;;;;;;;-7.02;100.00;100577.66;5066637;28;19920;-57
2022/12/08 07:41:56;;;;;;;;;;;;;;;-7.02;100.00;100575.91;5067020;28;19995;-58
2022/12/08 07:44:22;;;;;;;;;;;;;;;-7.08;100.00;100570.22;5072171;28;19928;-57
2022/12/08 07:46:47;;;;;;;;;;;;;;;-7.10;100.00;100565.16;5069205;28;20045;-58
2022/12/08 07:49:12;;;;;;;;;;;;;;;-7.10;100.00;100566.88;5069924;28;19928;-58
2022/12/08 07:51:38;;;;;;;;;;;;;;;-7.08;100.00;100565.88;5068528;28;19936;-58
2022/12/08 07:54:03;;;;;;;;;;;;;;;-7.06;100.00;100560.66;5067352;28;19935;-59
2022/12/08 07:56:28;;;;;;;;;;;;;;;-7.01;100.00;100558.69;5068417;28;19928;-59
2022/12/08 07:58:53;;;;;;;;;;;;;;;-7.08;100.00;100563.31;5065836;28;19921;-58
2022/12/08 08:01:19;;;;;;;;;;;;;;;-7.06;100.00;100563.25;5071292;28;19931;-59
2022/12/08 08:03:44;;;;;;;;;;;;;;;-7.08;100.00;100559.91;5069285;28;19931;-58
2022/12/08 08:06:09;;;;;;;;;;;;;;;-7.09;100.00;100564.22;5071123;28;19963;-52
2022/12/08 08:08:34;;;;;;;;;;;;;;;-7.11;100.00;100560.06;5065523;28;20300;-56
2022/12/08 08:10:59;;;;;;;;;;;;;;;-7.09;100.00;100563.41;5065882;28;19931;-59
2022/12/08 08:13:25;;;;;;;;;;;;;;;-7.08;100.00;100565.06;5066615;28;19920;-58
2022/12/08 08:15:50;;;;;;;;;;;;;;;-7.01;100.00;100563.84;5067399;28;19927;-59
2022/12/08 08:18:15;;;;;;;;;;;;;;;-6.96;100.00;100559.31;5068171;28;20054;-59
2022/12/08 08:20:40;;;;;;;;;;;;;;;-6.90;100.00;100563.31;5067607;28;20019;-60
2022/12/08 08:23:06;;;;;;;;;;;;;;;-6.87;100.00;100563.97;5066036;28;19924;-58
2022/12/08 08:25:31;;;;;;;;;;;;;;;-6.90;100.00;100564.13;5067582;28;20337;-59
2022/12/08 08:27:56;;;;;;;;;;;;;;;-6.95;100.00;100560.94;5069135;28;20323;-59
2022/12/08 08:30:21;;;;;;;;;;;;;;;-6.94;100.00;100567.78;5065653;28;20304;-58
2022/12/08 08:32:47;;;;;;;;;;;;;;;-6.93;100.00;100561.72;5061084;28;19921;-57
2022/12/08 08:35:12;;;;;;;;;;;;;;;-6.94;100.00;100557.47;5066197;28;19986;-58
2022/12/08 08:37:37;;;;;;;;;;;;;;;-6.89;100.00;100560.66;5065522;28;20011;-59
2022/12/08 08:40:03;;;;;;;;;;;;;;;-6.89;100.00;100560.66;5068280;28;19924;-57
2022/12/08 08:42:28;;;;;;;;;;;;;;;-6.87;100.00;100556.25;5066619;28;19971;-55
2022/12/08 08:44:53;;;;;;;;;;;;;;;-6.85;100.00;100557.00;5069359;28;19927;-59
2022/12/08 08:47:19;;;;;;;;;;;;;;;-6.82;100.00;100553.44;5068831;28;19920;-59
2022/12/08 08:49:44;;;;;;;;;;;;;;;-6.75;100.00;100554.78;5067229;28;19920;-57
2022/12/08 08:52:10;;;;;;;;;;;;;;;-6.73;100.00;100555.56;5071973;28;19924;-58
2022/12/08 08:54:35;;;;;;;;;;;;;;;-6.64;100.00;100556.81;5072754;28;19943;-59
2022/12/08 08:57:00;;;;;;;;;;;;;;;-6.56;100.00;100546.94;5067691;28;20361;-59
2022/12/08 08:59:26;;;;;;;;;;;;;;;-6.51;100.00;100551.84;5066867;28;20249;-59
2022/12/08 09:01:52;;;;;;;;;;;;;;;-6.42;100.00;100547.06;5066835;28;19927;-59
2022/12/08 09:04:17;;;;;;;;;;;;;;;-6.34;100.00;100545.81;5066436;28;20332;-58
2022/12/08 09:06:44;;;;;;;;;;;;;;;-6.31;100.00;100538.75;5072779;28;20432;-58
2022/12/08 09:09:09;;;;;;;;;;;;;;;-6.27;100.00;100539.41;5068887;28;19956;-59
2022/12/08 09:11:34;;;;;;;;;;;;;;;-6.06;100.00;100537.44;5070328;28;20007;-59
2022/12/08 09:14:00;;;;;;;;;;;;;;;-5.90;100.00;100535.63;5066178;28;20436;-60
2022/12/08 09:16:25;;;;;;;;;;;;;;;-5.75;100.00;100539.97;5069932;28;19960;-59
2022/12/08 09:18:50;;;;;;;;;;;;;;;-5.67;100.00;100529.19;5069068;28;19951;-60
2022/12/08 09:21:21;;;;;;;;;;;;;;;-5.60;100.00;100527.94;5070358;28;20008;-60
2022/12/08 09:23:47;;;;;;;;;;;;;;;-5.54;100.00;100531.94;5068631;28;19920;-59
2022/12/08 09:26:12;;;;;;;;;;;;;;;-5.43;100.00;100532.16;5068451;28;19982;-60
2022/12/08 09:28:37;;;;;;;;;;;;;;;-5.30;100.00;100527.09;5071675;28;19924;-60
2022/12/08 09:31:03;;;;;;;;;;;;;;;-5.19;100.00;100523.91;5069646;28;20030;-58
2022/12/08 09:33:28;;;;;;;;;;;;;;;-5.18;100.00;100526.41;5066629;28;20011;-60
2022/12/08 09:35:53;;;;;;;;;;;;;;;-5.09;100.00;100525.03;5066267;28;19973;-59
2022/12/08 09:38:19;;;;;;;;;;;;;;;-4.99;100.00;100530.50;5070704;28;20011;-58
2022/12/08 09:40:51;;;;;;;;;;;;;;;-4.88;100.00;100530.69;5069419;28;19924;-60
2022/12/08 09:43:35;;;;;;;;;;;;;;;-4.77;100.00;100523.13;5075444;28;20182;-60
2022/12/08 09:46:03;;;;;;;;;;;;;;;-4.63;100.00;100522.31;5064297;28;20033;-61
2022/12/08 09:48:30;;;;;;;;;;;;;;;-4.53;100.00;100527.75;5068648;28;19921;-61
2022/12/08 09:50:56;;;;;;;;;;;;;;;-4.42;100.00;100520.97;5077484;28;20438;-61
2022/12/08 09:53:45;;;;;;;;;;;;;;;-4.32;100.00;100533.38;5075551;28;20360;-61
2022/12/08 09:56:10;;;;;;;;;;;;;;;-4.18;100.00;100526.44;5065582;28;20023;-61
2022/12/08 09:58:38;;;;;;;;;;;;;;;-4.06;100.00;100532.59;5070391;28;20023;-61
2022/12/08 10:01:03;;;;;;;;;;;;;;;-3.96;100.00;100535.44;5078700;28;19924;-61
2022/12/08 10:03:29;;;;;;;;;;;;;;;-3.90;100.00;100534.22;5069241;28;20353;-61
2022/12/08 10:06:18;;;;;;;;;;;;;;;-3.78;100.00;100528.25;5073307;28;19920;-60
2022/12/08 10:09:01;;;;;;;;;;;;;;;-3.70;100.00;100522.59;5063216;28;19986;-62
2022/12/08 10:11:39;;;;;;;;;;;;;;;-3.51;100.00;100521.31;5078533;28;20297;-61
2022/12/08 10:14:22;;;;;;;;;;;;;;;-3.37;100.00;100525.59;5071684;28;20389;-61
2022/12/08 10:16:48;;;;;;;;;;;;;;;-3.25;100.00;100516.19;5072755;28;19924;-61
2022/12/08 10:19:19;;;;;;;;;;;;;;;-3.07;100.00;100520.16;5072335;28;19920;-62
2022/12/08 10:21:44;;;;;;;;;;;;;;;-2.98;100.00;100513.50;5073356;28;20007;-61
2022/12/08 10:24:17;;;;;;;;;;;;;;;-2.71;100.00;100522.94;5072477;28;20022;-61
2022/12/08 10:26:43;;;;;;;;;;;;;;;-2.49;100.00;100504.13;5072731;28;19928;-60
2022/12/08 10:29:11;;;;;;;;;;;;;;;-2.45;100.00;100513.38;5072150;28;20031;-61
2022/12/08 10:31:36;;;;;;;;;;;;;;;-2.45;100.00;100501.22;5067577;28;19928;-60
2022/12/08 10:34:16;;;;;;;;;;;;;;;-2.32;100.00;100500.34;5071844;28;20266;-59
2022/12/08 10:36:44;;;;;;;;;;;;;;;-2.12;100.00;100511.94;5077360;28;20378;-61
2022/12/08 10:39:28;;;;;;;;;;;;;;;-1.82;100.00;100509.75;5070982;28;19951;-62
2022/12/08 10:41:59;;;;;;;;;;;;;;;-1.59;100.00;100513.28;5074969;28;19935;-61
2022/12/08 10:44:25;;;;;;;;;;;;;;;-1.40;100.00;100502.34;5070269;28;19963;-61
2022/12/08 10:46:50;;;;;;;;;;;;;;;-1.37;100.00;100502.16;5072124;28;19963;-61
2022/12/08 10:49:23;;;;;;;;;;;;;;;-1.29;100.00;100498.13;5068739;28;19927;-61
2022/12/08 10:51:48;;;;;;;;;;;;;;;-1.25;100.00;100505.59;5072285;28;19950;-61
2022/12/08 10:54:40;;;;;;;;;;;;;;;-1.19;100.00;100496.50;5082778;28;19930;-61
2022/12/08 10:57:18;;;;;;;;;;;;;;;-1.11;100.00;100500.22;5070539;28;19921;-61
2022/12/08 10:59:43;;;;;;;;;;;;;;;-1.00;100.00;100503.78;5070364;28;20006;-62
2022/12/08 11:02:16;;;;;;;;;;;;;;;-0.88;100.00;100498.47;5066055;28;20321;-62
2022/12/08 11:04:41;;;;;;;;;;;;;;;-0.83;100.00;100503.31;5069062;28;19920;-62
2022/12/08 11:07:09;;;;;;;;;;;;;;;-0.68;100.00;100493.50;5070608;28;20359;-62
2022/12/08 11:09:46;;;;;;;;;;;;;;;-0.52;100.00;100490.53;5063187;28;19920;-64
2022/12/08 11:12:13;;;;;;;;;;;;;;;-0.47;100.00;100484.00;5069179;28;19924;-62
2022/12/08 11:14:41;;;;;;;;;;;;;;;-0.42;100.00;100480.22;5065783;28;19928;-63
2022/12/08 11:17:15;;;;;;;;;;;;;;;-0.28;100.00;100480.00;5075353;28;19930;-62
2022/12/08 11:19:42;;;;;;;;;;;;;;;-0.17;100.00;100476.53;5068483;28;19963;-63
2022/12/08 11:22:19;;;;;;;;;;;;;;;-0.04;100.00;100470.22;5069151;28;19924;-63
2022/12/08 11:24:44;;;;;;;;;;;;;;;0.05;100.00;100470.41;5072299;28;20250;-63
2022/12/08 11:27:09;;;;;;;;;;;;;;;0.15;100.00;100461.72;5072841;28;19925;-63
2022/12/08 11:29:35;;;;;;;;;;;;;;;0.22;100.00;100457.66;5073141;28;19923;-63
2022/12/08 11:32:00;;;;;;;;;;;;;;;0.28;100.00;100458.13;5078400;28;19931;-63
2022/12/08 11:34:30;;;;;;;;;;;;;;;0.36;100.00;100451.34;5073448;28;19943;-63
2022/12/08 11:36:56;;;;;;;;;;;;;;;0.45;100.00;100435.88;5072821;28;19970;-63
2022/12/08 11:39:24;;;;;;;;;;;;;;;0.48;100.00;100431.22;5070686;28;19924;-63
2022/12/08 11:41:52;;;;;;;;;;;;;;;0.56;100.00;100435.81;5069014;28;19921;-63
2022/12/08 11:44:27;;;;;;;;;;;;;;;0.58;100.00;100426.91;5068520;28;20013;-62
2022/12/08 11:46:58;;;;;;;;;;;;;;;0.78;100.00;100429.66;5067425;28;19970;-63
2022/12/08 11:49:27;;;;;;;;;;;;;;;0.81;100.00;100421.56;5069897;28;19959;-63
2022/12/08 11:51:58;;;;;;;;;;;;;;;0.92;100.00;100421.47;5080446;28;20007;-64
2022/12/08 11:54:27;;;;;;;;;;;;;;;1.00;100.00;100424.25;5066226;28;19943;-63
2022/12/08 11:56:56;;;;;;;;;;;;;;;1.07;100.00;100401.88;5065743;28;19989;-62
2022/12/08 11:59:33;;;;;;;;;;;;;;;1.13;100.00;100392.69;5069391;28;19960;-62
2022/12/08 12:01:59;;;;;;;;;;;;;;;1.07;100.00;100388.81;5077855;28;19928;-62
2022/12/08 12:04:30;;;;;;;;;;;;;;;1.17;100.00;100394.09;5070329;28;19956;-63
2022/12/08 12:07:01;;;;;;;;;;;;;;;1.26;100.00;100390.66;5072416;28;19925;-63
2022/12/08 12:09:33;;;;;;;;;;;;;;;1.39;100.00;100394.81;5070821;28;19942;-62
2022/12/08 12:12:18;;;;;;;;;;;;;;;1.30;100.00;100375.56;5068650;28;19924;-61
2022/12/08 12:14:46;;;;;;;;;;;;;;;1.33;100.00;100362.22;5073195;28;19928;-63
2022/12/08 12:17:29;;;;;;;;;;;;;;;1.45;100.00;100366.38;5066823;28;19924;-63
2022/12/08 12:19:58;;;;;;;;;;;;;;;1.62;100.00;100359.66;5063425;28;19970;-63
2022/12/08 12:22:24;;;;;;;;;;;;;;;1.69;100.00;100359.94;5069911;28;19935;-62
2022/12/08 12:24:51;;;;;;;;;;;;;;;1.77;100.00;100340.97;5073525;28;19939;-61
2022/12/08 12:27:26;;;;;;;;;;;;;;;1.74;100.00;100339.47;5070486;28;19924;-62
2022/12/08 12:30:01;;;;;;;;;;;;;;;1.73;100.00;100335.22;5083913;28;19924;-61
2022/12/08 12:32:38;;;;;;;;;;;;;;;1.71;100.00;100329.28;5068436;28;19942;-61